createdAt,value
2023-02-11T00:00:50.311Z,101038.44
2023-02-11T00:03:19.099Z,101039.69
2023-02-11T00:06:00.117Z,101037.27
2023-02-11T00:08:32.803Z,101034.82
2023-02-11T00:11:10.919Z,101039.39
2023-02-11T00:13:40.760Z,101034.77
2023-02-11T00:16:14.468Z,101040.92
2023-02-11T00:18:43.521Z,101040.01
2023-02-11T00:21:16.349Z,101039.78
2023-02-11T00:23:51.309Z,101042.95
2023-02-11T00:26:34.312Z,101042.73
2023-02-11T00:29:03.563Z,101043.23
2023-02-11T00:31:36.012Z,101045.99
2023-02-11T00:34:07.353Z,101045.23
2023-02-11T00:36:36.593Z,101048.20
2023-02-11T00:39:04.987Z,101044.25
2023-02-11T00:41:34.026Z,101040.66
2023-02-11T00:44:02.953Z,101030.02
2023-02-11T00:46:32.175Z,101033.55
2023-02-11T00:49:00.862Z,101037.63
2023-02-11T00:51:29.457Z,101031.45
2023-02-11T00:53:58.246Z,101029.06
2023-02-11T00:56:26.672Z,101025.83
2023-02-11T00:58:56.383Z,101018.75
2023-02-11T01:01:27.781Z,101020.93
2023-02-11T01:03:57.097Z,101013.91
2023-02-11T01:06:26.044Z,101016.05
2023-02-11T01:08:57.285Z,101016.91
2023-02-11T01:11:28.094Z,101018.83
2023-02-11T01:13:58.943Z,101018.98
2023-02-11T01:16:31.290Z,101021.40
2023-02-11T01:19:00.361Z,101021.36
2023-02-11T01:21:29.058Z,101017.80
2023-02-11T01:23:57.948Z,101019.22
2023-02-11T01:26:26.630Z,101021.02
2023-02-11T01:29:03.332Z,101020.02
2023-02-11T01:31:32.905Z,101018.29
2023-02-11T01:34:02.476Z,101024.29
2023-02-11T01:36:33.093Z,101023.63
2023-02-11T01:39:06.971Z,101024.17
2023-02-11T01:41:40.245Z,101020.83
2023-02-11T01:44:28.208Z,101028.62
2023-02-11T01:47:00.400Z,101024.38
2023-02-11T01:49:37.127Z,101020.11
2023-02-11T01:52:20.302Z,101014.23
2023-02-11T01:55:13.033Z,101008.89
2023-02-11T01:57:45.468Z,101000.45
2023-02-11T02:00:24.962Z,100999.25
2023-02-11T02:02:58.872Z,101001.45
2023-02-11T02:05:48.198Z,101001.83
2023-02-11T02:08:19.927Z,100996.15
2023-02-11T02:10:49.820Z,100991.90
2023-02-11T02:13:18.868Z,100989.22
2023-02-11T02:15:52.735Z,100988.83
2023-02-11T02:18:49.101Z,100989.15
2023-02-11T02:21:31.176Z,100987.39
2023-02-11T02:24:27.388Z,100987.55
2023-02-11T02:27:25.150Z,100982.20
2023-02-11T02:30:19.887Z,100984.50
2023-02-11T02:33:20.508Z,100979.55
2023-02-11T02:36:29.311Z,100983.65
2023-02-11T02:39:10.759Z,100983.31
2023-02-11T02:41:39.729Z,100984.19
2023-02-11T02:44:12.603Z,100982.27
2023-02-11T02:46:45.686Z,100980.86
2023-02-11T02:49:15.868Z,100986.67
2023-02-11T02:52:10.676Z,100989.16
2023-02-11T02:55:17.222Z,100983.88
2023-02-11T02:58:31.123Z,100981.98
2023-02-11T03:01:52.013Z,100979.19
2023-02-11T03:04:31.124Z,100976.43
2023-02-11T03:07:22.763Z,100979.50
2023-02-11T03:10:00.462Z,100982.05
2023-02-11T03:12:31.486Z,100983.30
2023-02-11T03:15:01.082Z,100982.77
2023-02-11T03:17:39.797Z,100987.36
2023-02-11T03:20:12.965Z,100984.16
2023-02-11T03:22:54.140Z,100978.30
2023-02-11T03:25:32.293Z,100977.59
2023-02-11T03:28:29.066Z,100971.73
2023-02-11T03:31:11.136Z,100966.52
2023-02-11T03:33:51.197Z,100960.11
2023-02-11T03:36:29.070Z,100954.27
2023-02-11T03:38:58.596Z,100954.66
2023-02-11T03:41:29.655Z,100954.89
2023-02-11T03:44:01.821Z,100953.16
2023-02-11T03:46:38.871Z,100949.13
2023-02-11T03:49:11.320Z,100944.53
2023-02-11T03:51:42.354Z,100946.50
2023-02-11T03:54:14.045Z,100942.42
2023-02-11T03:56:50.178Z,100936.60
2023-02-11T03:59:18.576Z,100927.77
2023-02-11T04:01:47.055Z,100926.72
2023-02-11T04:04:15.744Z,100918.73
2023-02-11T04:06:44.371Z,100917.52
2023-02-11T04:09:12.842Z,100918.39
2023-02-11T04:11:41.384Z,100918.94
2023-02-11T04:14:10.316Z,100917.33
2023-02-11T04:16:40.850Z,100912.54
2023-02-11T04:19:12.746Z,100907.21
2023-02-11T04:21:42.408Z,100908.48
2023-02-11T04:24:12.398Z,100909.59
2023-02-11T04:26:42.891Z,100909.59
2023-02-11T04:29:11.286Z,100912.09
2023-02-11T04:31:49.827Z,100911.23
2023-02-11T04:34:19.614Z,100905.25
2023-02-11T04:36:55.745Z,100904.94
2023-02-11T04:39:24.663Z,100904.80
2023-02-11T04:41:53.970Z,100901.25
2023-02-11T04:44:23.740Z,100896.96
2023-02-11T04:46:57.507Z,100897.83
2023-02-11T04:49:36.605Z,100890.55
2023-02-11T04:52:08.901Z,100886.47
2023-02-11T04:54:52.056Z,100881.64
2023-02-11T04:57:20.633Z,100873.13
2023-02-11T04:59:55.478Z,100873.65
2023-02-11T05:02:29.175Z,100865.33
2023-02-11T05:05:01.601Z,100866.91
2023-02-11T05:07:35.153Z,100865.31
2023-02-11T05:10:05.982Z,100865.84
2023-02-11T05:12:40.143Z,100868.11
2023-02-11T05:15:09.746Z,100864.77
2023-02-11T05:17:39.894Z,100863.20
2023-02-11T05:20:09.604Z,100862.37
2023-02-11T05:22:38.583Z,100864.68
2023-02-11T05:25:07.979Z,100866.48
2023-02-11T05:27:43.717Z,100862.48
2023-02-11T05:30:20.356Z,100862.12
2023-02-11T05:32:49.552Z,100863.34
2023-02-11T05:35:28.312Z,100861.23
2023-02-11T05:38:12.368Z,100864.08
2023-02-11T05:40:42.590Z,100861.75
2023-02-11T05:43:11.579Z,100862.82
2023-02-11T05:45:43.366Z,100860.89
2023-02-11T05:48:12.258Z,100862.52
2023-02-11T05:50:43.733Z,100860.43
2023-02-11T05:53:14.970Z,100861.89
2023-02-11T05:56:01.954Z,100859.59
2023-02-11T05:58:49.797Z,100855.02
2023-02-11T06:01:20.401Z,100855.92
2023-02-11T06:03:51.606Z,100849.70
2023-02-11T06:06:20.259Z,100845.27
2023-02-11T06:08:50.947Z,100835.90
2023-02-11T06:11:25.203Z,100829.73
2023-02-11T06:13:54.309Z,100825.63
2023-02-11T06:16:25.914Z,100819.57
2023-02-11T06:18:55.832Z,100817.20
2023-02-11T06:21:42.526Z,100813.08
2023-02-11T06:24:21.653Z,100806.02
2023-02-11T06:27:02.813Z,100802.70
2023-02-11T06:29:31.595Z,100804.33
2023-02-11T06:32:06.600Z,100800.11
2023-02-11T06:34:43.991Z,100802.04
2023-02-11T06:37:17.784Z,100798.02
2023-02-11T06:39:46.871Z,100802.61
2023-02-11T06:42:19.037Z,100794.72
2023-02-11T06:44:47.342Z,100791.31
2023-02-11T06:47:15.887Z,100781.52
2023-02-11T06:49:48.185Z,100773.98
2023-02-11T06:52:16.547Z,100771.54
2023-02-11T06:54:49.530Z,100765.84
2023-02-11T06:57:22.332Z,100760.02
2023-02-11T06:59:52.813Z,100754.13
2023-02-11T07:02:26.955Z,100753.04
2023-02-11T07:09:33.769Z,100741.44
2023-02-11T07:12:06.369Z,100737.91
2023-02-11T07:14:37.112Z,100736.84
2023-02-11T07:17:14.251Z,100737.42
2023-02-11T07:19:43.778Z,100739.23
2023-02-11T07:22:14.923Z,100741.48
2023-02-11T07:24:44.919Z,100739.88
2023-02-11T07:27:16.575Z,100742.98
2023-02-11T07:29:49.039Z,100738.52
2023-02-11T07:32:19.772Z,100738.33
2023-02-11T07:34:51.081Z,100732.59
2023-02-11T07:37:19.763Z,100734.21
2023-02-11T07:39:49.026Z,100731.23
2023-02-11T07:42:22.274Z,100735.26
2023-02-11T07:44:58.096Z,100735.95
2023-02-11T07:47:26.675Z,100734.54
2023-02-11T07:49:59.412Z,100730.16
2023-02-11T07:52:34.716Z,100731.22
2023-02-11T07:55:05.096Z,100726.70
2023-02-11T07:57:34.121Z,100715.79
2023-02-11T08:00:05.045Z,100707.09
2023-02-11T08:02:41.801Z,100703.33
2023-02-11T08:05:11.537Z,100697.70
2023-02-11T08:07:43.641Z,100690.07
2023-02-11T08:10:13.390Z,100683.07
2023-02-11T08:12:48.517Z,100677.27
2023-02-11T08:15:18.589Z,100675.25
2023-02-11T08:17:49.449Z,100680.14
2023-02-11T08:20:22.025Z,100674.02
2023-02-11T08:22:53.604Z,100668.63
2023-02-11T08:25:22.216Z,100669.16
2023-02-11T08:27:52.630Z,100666.42
2023-02-11T08:30:22.656Z,100660.48
2023-02-11T08:32:53.324Z,100654.86
2023-02-11T08:35:22.775Z,100655.91
2023-02-11T08:37:53.472Z,100654.48
2023-02-11T08:40:24.340Z,100655.39
2023-02-11T08:42:55.776Z,100654.71
2023-02-11T08:45:24.670Z,100652.32
2023-02-11T08:48:02.476Z,100657.20
2023-02-11T08:50:39.773Z,100649.48
2023-02-11T08:53:25.038Z,100641.45
2023-02-11T08:55:55.070Z,100635.98
2023-02-11T08:58:27.447Z,100639.92
2023-02-11T09:00:58.995Z,100639.23
2023-02-11T09:03:28.394Z,100629.71
2023-02-11T09:06:00.268Z,100625.53
2023-02-11T09:08:30.663Z,100624.40
2023-02-11T09:11:09.530Z,100619.85
2023-02-11T09:13:56.738Z,100625.69
2023-02-11T09:16:37.099Z,100618.16
2023-02-11T09:19:06.454Z,100610.38
2023-02-11T09:21:35.032Z,100603.09
2023-02-11T09:24:03.819Z,100592.50
2023-02-11T09:26:37.088Z,100586.03
2023-02-11T09:29:07.259Z,100580.23
2023-02-11T09:31:37.555Z,100571.69
2023-02-11T09:34:08.131Z,100569.89
2023-02-11T09:36:39.284Z,100576.06
2023-02-11T09:39:27.138Z,100567.66
2023-02-11T09:42:26.192Z,100566.80
2023-02-11T09:45:02.273Z,100561.79
2023-02-11T09:47:36.160Z,100563.48
2023-02-11T09:50:22.552Z,100560.67
2023-02-11T09:53:06.212Z,100556.29
2023-02-11T09:55:45.571Z,100551.48
2023-02-11T09:58:25.320Z,100550.55
2023-02-11T10:01:23.976Z,100536.77
2023-02-11T10:04:13.116Z,100529.71
2023-02-11T10:06:47.485Z,100524.18
2023-02-11T10:09:39.963Z,100518.47
2023-02-11T10:12:48.925Z,100516.16
2023-02-11T10:15:39.487Z,100509.82
2023-02-11T10:18:18.994Z,100507.25
2023-02-11T10:21:10.519Z,100501.87
2023-02-11T10:23:44.468Z,100491.86
2023-02-11T10:26:22.083Z,100479.08
2023-02-11T10:28:58.295Z,100474.23
2023-02-11T10:31:41.597Z,100471.88
2023-02-11T10:34:16.017Z,100467.35
2023-02-11T10:36:44.937Z,100461.23
2023-02-11T10:39:22.030Z,100454.36
2023-02-11T10:42:03.526Z,100460.30
2023-02-11T10:44:37.688Z,100458.26
2023-02-11T10:47:22.068Z,100449.23
2023-02-11T10:49:52.887Z,100443.61
2023-02-11T10:52:30.081Z,100447.14
2023-02-11T10:55:25.215Z,100445.02
2023-02-11T10:57:59.854Z,100433.98
2023-02-11T11:00:40.070Z,100426.81
2023-02-11T11:03:24.316Z,100421.25
2023-02-11T11:05:58.512Z,100417.80
2023-02-11T11:08:52.422Z,100401.08
2023-02-11T11:11:27.150Z,100391.35
2023-02-11T11:14:21.306Z,100385.89
2023-02-11T11:16:56.908Z,100376.79
2023-02-11T11:20:00.670Z,100373.33
2023-02-11T11:22:37.231Z,100370.16
2023-02-11T11:25:07.544Z,100363.33
2023-02-11T11:27:43.949Z,100359.63
2023-02-11T11:30:17.016Z,100355.41
2023-02-11T11:32:51.768Z,100343.30
2023-02-11T11:35:28.618Z,100335.23
2023-02-11T11:38:05.347Z,100323.29
2023-02-11T11:40:40.316Z,100322.05
2023-02-11T11:43:22.653Z,100319.48
2023-02-11T11:46:00.265Z,100314.07
2023-02-11T11:48:36.183Z,100315.45
2023-02-11T11:51:12.097Z,100305.26
2023-02-11T11:53:59.721Z,100295.91
2023-02-11T11:56:34.442Z,100283.08
2023-02-11T11:59:16.847Z,100279.34
2023-02-11T12:02:16.114Z,100271.15
2023-02-11T12:05:12.662Z,100264.91
2023-02-11T12:08:00.221Z,100262.55
2023-02-11T12:10:40.248Z,100258.44
2023-02-11T12:13:28.515Z,100251.63
2023-02-11T12:16:13.950Z,100245.60
2023-02-11T12:18:59.044Z,100234.66
2023-02-11T12:21:47.013Z,100234.77
2023-02-11T12:25:01.707Z,100231.02
2023-02-11T12:28:04.740Z,100225.45
2023-02-11T12:30:52.728Z,100216.23
2023-02-11T12:33:25.206Z,100214.15
2023-02-11T12:36:28.461Z,100207.00
2023-02-11T12:39:31.702Z,100197.80
2023-02-11T12:42:56.112Z,100192.65
2023-02-11T12:45:48.814Z,100189.55
2023-02-11T12:48:48.616Z,100188.46
2023-02-11T12:51:51.096Z,100186.74
2023-02-11T12:54:33.278Z,100191.20
2023-02-11T12:57:21.883Z,100181.76
2023-02-11T13:00:05.314Z,100183.73
2023-02-11T13:02:45.325Z,100177.67
2023-02-11T13:05:32.459Z,100171.77
2023-02-11T13:08:22.313Z,100158.27
2023-02-11T13:10:55.492Z,100155.33
2023-02-11T13:13:50.780Z,100148.14
2023-02-11T13:16:51.933Z,100135.85
2023-02-11T13:19:59.346Z,100135.09
2023-02-11T13:22:50.640Z,100120.92
2023-02-11T13:25:43.615Z,100109.92
2023-02-11T13:28:40.328Z,100105.53
2023-02-11T13:31:13.814Z,100102.07
2023-02-11T13:33:47.058Z,100093.60
2023-02-11T13:36:21.173Z,100094.39
2023-02-11T13:39:14.221Z,100082.58
2023-02-11T13:41:51.574Z,100076.33
2023-02-11T13:44:53.959Z,100069.70
2023-02-11T13:47:32.848Z,100065.62
2023-02-11T13:50:03.211Z,100059.69
2023-02-11T13:52:37.602Z,100054.95
2023-02-11T13:55:13.724Z,100055.00
2023-02-11T13:58:11.316Z,100055.37
2023-02-11T14:00:52.508Z,100056.39
2023-02-11T14:03:55.120Z,100053.66
2023-02-11T14:07:05.376Z,100057.46
2023-02-11T14:09:40.336Z,100063.15
2023-02-11T14:12:30.791Z,100058.95
2023-02-11T14:15:07.646Z,100053.96
2023-02-11T14:17:53.735Z,100053.45
2023-02-11T14:20:46.034Z,100044.15
2023-02-11T14:23:31.104Z,100042.79
2023-02-11T14:26:27.106Z,100041.02
2023-02-11T14:29:15.451Z,100032.59
2023-02-11T14:32:06.097Z,100023.17
2023-02-11T14:34:47.960Z,100017.98
2023-02-11T14:38:00.415Z,100014.07
2023-02-11T14:40:54.266Z,100004.17
2023-02-11T14:43:48.067Z,100001.54
2023-02-11T14:46:18.250Z,99988.63
2023-02-11T14:48:50.012Z,99982.67
2023-02-11T14:51:27.005Z,99978.27
2023-02-11T14:54:15.530Z,99977.44
2023-02-11T14:56:45.260Z,99979.55
2023-02-11T14:59:30.232Z,99975.23
2023-02-11T15:01:58.919Z,99970.02
2023-02-11T15:04:36.608Z,99972.96
2023-02-11T15:07:12.125Z,99972.89
2023-02-11T15:09:46.366Z,99963.63
2023-02-11T15:12:27.590Z,99954.92
2023-02-11T15:15:03.692Z,99946.96
2023-02-11T15:17:37.834Z,99947.48
2023-02-11T15:20:25.285Z,99945.99
2023-02-11T15:23:08.620Z,99948.61
2023-02-11T15:25:48.080Z,99951.14
2023-02-11T15:28:40.636Z,99952.77
2023-02-11T15:31:16.141Z,99952.58
2023-02-11T15:33:52.671Z,99953.79
2023-02-11T15:36:41.909Z,99953.77
2023-02-11T15:39:44.473Z,99947.61
2023-02-11T15:42:41.004Z,99941.50
2023-02-11T15:45:15.749Z,99935.77
2023-02-11T15:47:54.184Z,99935.73
2023-02-11T15:50:33.053Z,99938.48
2023-02-11T15:53:20.575Z,99936.89
2023-02-11T15:55:54.937Z,99942.55
2023-02-11T15:58:39.742Z,99943.34
2023-02-11T16:01:17.308Z,99946.94
2023-02-11T16:03:50.244Z,99939.93
2023-02-11T16:06:23.736Z,99935.15
2023-02-11T16:09:08.723Z,99932.97
2023-02-11T16:11:54.790Z,99930.93
2023-02-11T16:14:28.458Z,99921.84
2023-02-11T16:17:15.048Z,99917.30
2023-02-11T16:19:57.181Z,99911.83
2023-02-11T16:22:38.967Z,99909.21
2023-02-11T16:25:12.515Z,99905.52
2023-02-11T16:27:43.006Z,99901.98
2023-02-11T17:17:26.756Z,99846.23
2023-02-11T17:20:04.470Z,99830.48
2023-02-11T17:22:43.973Z,99832.89
2023-02-11T17:25:11.190Z,99833.19
2023-02-11T17:27:43.407Z,99827.98
2023-02-11T17:30:14.676Z,99822.52
2023-02-11T17:32:51.244Z,99818.42
2023-02-11T17:35:30.175Z,99815.96
2023-02-11T17:38:05.498Z,99813.53
2023-02-11T17:40:46.981Z,99804.52
2023-02-11T17:43:19.918Z,99808.08
2023-02-11T17:46:17.704Z,99806.45
2023-02-11T17:48:57.054Z,99806.93
2023-02-11T17:51:33.752Z,99805.27
2023-02-11T17:54:09.990Z,99797.61
2023-02-11T17:56:39.708Z,99791.16
2023-02-11T17:59:10.845Z,99792.55
2023-02-11T18:01:55.983Z,99791.82
2023-02-11T18:05:15.525Z,99783.60
2023-02-11T18:08:24.774Z,99784.63
2023-02-11T18:11:09.224Z,99790.31
2023-02-11T18:14:00.494Z,99790.49
2023-02-11T18:17:14.276Z,99785.30
2023-02-11T18:20:06.083Z,99780.34
2023-02-11T18:28:17.722Z,99780.88
2023-02-11T18:37:28.234Z,99767.94
2023-02-11T18:44:15.416Z,99767.38
2023-02-11T18:55:58.154Z,99768.30
2023-02-11T18:58:34.221Z,99766.95
2023-02-11T19:02:03.891Z,99765.27
2023-02-11T19:05:07.233Z,99756.58
2023-02-11T19:07:51.565Z,99754.95
2023-02-11T19:10:20.365Z,99755.82
2023-02-11T19:13:04.619Z,99744.98
2023-02-11T19:15:42.609Z,99744.77
2023-02-11T19:18:14.784Z,99743.02
2023-02-11T19:20:45.928Z,99739.63
2023-02-11T19:23:17.156Z,99733.27
2023-02-11T19:25:47.905Z,99732.20
2023-02-11T19:28:17.467Z,99731.93
2023-02-11T19:31:19.328Z,99733.81
2023-02-11T19:33:51.393Z,99727.55
2023-02-11T19:36:20.958Z,99724.91
2023-02-11T19:38:55.040Z,99722.13
2023-02-11T19:41:36.121Z,99718.34
2023-02-11T19:44:40.840Z,99718.46
2023-02-11T19:47:35.356Z,99713.27
2023-02-11T19:58:23.770Z,99708.73
2023-02-11T20:01:51.135Z,99704.11
2023-02-11T20:04:34.780Z,99700.38
2023-02-11T20:07:08.982Z,99697.68
2023-02-11T20:09:55.030Z,99692.05
2023-02-11T20:12:48.008Z,99691.98
2023-02-11T20:16:00.979Z,99688.42
2023-02-11T20:22:06.558Z,99683.11
2023-02-11T20:24:36.917Z,99678.80
2023-02-11T20:27:07.889Z,99674.67
2023-02-11T20:29:39.103Z,99673.62
2023-02-11T20:32:10.485Z,99666.41
2023-02-11T20:34:41.497Z,99671.04
2023-02-11T20:37:12.710Z,99671.02
2023-02-11T20:39:55.647Z,99671.41
2023-02-11T20:42:25.787Z,99670.36
2023-02-11T20:44:59.713Z,99665.33
2023-02-11T20:50:22.646Z,99670.55
2023-02-11T20:52:54.287Z,99679.40
2023-02-11T20:55:21.350Z,99675.73
2023-02-11T20:57:50.889Z,99668.83
2023-02-11T21:00:20.431Z,99662.63
2023-02-11T21:02:57.074Z,99660.33
2023-02-11T21:05:29.630Z,99658.08
2023-02-11T21:08:00.627Z,99655.51
2023-02-11T21:10:34.256Z,99658.23
2023-02-11T21:13:06.416Z,99659.55
2023-02-11T21:15:36.929Z,99661.59
2023-02-11T21:18:11.670Z,99659.52
2023-02-11T21:20:44.778Z,99659.06
2023-02-11T21:23:13.886Z,99657.09
2023-02-11T21:25:45.720Z,99649.94
2023-02-11T21:28:18.056Z,99649.64
2023-02-11T21:30:46.626Z,99645.66
2023-02-11T21:33:21.080Z,99644.41
2023-02-11T21:35:59.907Z,99644.55
2023-02-11T21:38:32.901Z,99646.30
2023-02-11T21:41:06.522Z,99639.54
2023-02-11T21:43:39.115Z,99641.50
2023-02-11T21:46:08.582Z,99635.91
2023-02-11T21:48:38.807Z,99631.93
2023-02-11T21:51:15.027Z,99629.64
2023-02-11T21:53:47.583Z,99635.55
2023-02-11T21:56:18.814Z,99635.27
2023-02-11T21:58:58.497Z,99639.19
2023-02-11T22:01:45.778Z,99633.93
2023-02-11T22:04:20.565Z,99638.81
2023-02-11T22:06:52.563Z,99636.39
2023-02-11T22:09:24.124Z,99633.86
2023-02-11T22:11:55.498Z,99626.41
2023-02-11T22:14:25.262Z,99636.67
2023-02-11T22:16:56.050Z,99635.09
2023-02-11T22:19:23.679Z,99627.80
2023-02-11T22:21:59.676Z,99631.86
2023-02-11T22:28:00.744Z,99622.54
2023-02-11T22:30:28.374Z,99622.52
2023-02-11T22:33:35.862Z,99626.26
2023-02-11T22:36:26.243Z,99621.12
2023-02-11T22:39:00.430Z,99632.77
2023-02-11T22:41:29.552Z,99628.70
2023-02-11T22:44:00.855Z,99623.96
2023-02-11T22:46:30.714Z,99628.08
2023-02-11T22:48:58.280Z,99628.34
2023-02-11T22:51:27.975Z,99633.20
2023-02-11T22:54:03.176Z,99632.05
2023-02-11T22:56:32.924Z,99624.80
2023-02-11T22:59:12.446Z,99621.58
2023-02-11T23:01:40.202Z,99623.41
2023-02-11T23:04:09.004Z,99628.14
2023-02-11T23:06:38.638Z,99624.17
2023-02-11T23:09:13.197Z,99623.23
2023-02-11T23:11:42.275Z,99620.91
2023-02-11T23:14:14.105Z,99621.63
2023-02-11T23:16:42.335Z,99620.11
2023-02-11T23:19:12.999Z,99624.30
2023-02-11T23:21:45.089Z,99623.84
2023-02-11T23:24:52.253Z,99624.73
2023-02-11T23:27:19.367Z,99629.41
2023-02-11T23:29:50.266Z,99629.67
2023-02-11T23:32:24.279Z,99630.04
2023-02-11T23:34:53.876Z,99627.64
2023-02-11T23:37:23.078Z,99631.93
2023-02-11T23:39:51.670Z,99636.29
2023-02-11T23:42:21.149Z,99643.36
2023-02-11T23:45:01.205Z,99639.96
2023-02-11T23:47:35.254Z,99646.32
2023-02-11T23:50:04.803Z,99649.88
2023-02-11T23:52:34.894Z,99651.65
2023-02-11T23:55:07.615Z,99655.52
2023-02-11T23:57:36.628Z,99653.94
